Time;durP1;ratioP1;P1;durP2;ratioP2;P2;SDS_P1;SDS_P2;PMS_P1;PMS_P2;Temp;Humidity;BMP_temperature;BMP_pressure;BME280_temperature;BME280_humidity;BME280_pressure;Samples;Min_cycle;Max_cycle;Signal;HPM_P1;HPM_P2
2022/04/22 00:02:35;;;;;;;;;;;;;;;12.76;61.57;99562.59;5033022;28;19917;-86
2022/04/22 00:05:20;;;;;;;;;;;;;;;12.75;62.22;99557.50;5045805;28;19917;-86
2022/04/22 00:08:05;;;;;;;;;;;;;;;12.72;61.95;99556.28;5036848;28;19921;-86
2022/04/22 00:13:58;;;;;;;;;;;;;;;12.72;62.26;99550.84;5042829;28;19917;-86
2022/04/22 00:16:43;;;;;;;;;;;;;;;12.71;62.55;99545.72;5043783;28;19940;-87
2022/04/22 00:19:27;;;;;;;;;;;;;;;12.67;62.77;99534.75;5039684;28;19917;-86
2022/04/22 00:22:31;;;;;;;;;;;;;;;12.63;63.30;99525.72;5056288;28;19921;-88
2022/04/22 00:25:15;;;;;;;;;;;;;;;12.74;62.84;99523.19;5034071;28;20316;-89
2022/04/22 00:28:00;;;;;;;;;;;;;;;12.81;63.10;99515.94;5048867;28;19921;-89
2022/04/22 00:30:45;;;;;;;;;;;;;;;12.77;63.14;99515.09;5046741;28;19917;-89
2022/04/22 00:33:30;;;;;;;;;;;;;;;12.77;62.89;99509.63;5041618;28;19917;-89
2022/04/22 00:36:14;;;;;;;;;;;;;;;12.74;63.19;99504.91;5049242;28;19917;-89
2022/04/22 00:38:59;;;;;;;;;;;;;;;12.77;62.96;99497.94;5048665;28;19917;-89
2022/04/22 00:41:44;;;;;;;;;;;;;;;12.80;63.58;99487.06;5043677;28;19917;-89
2022/04/22 00:44:28;;;;;;;;;;;;;;;12.77;63.25;99478.81;5041178;28;20397;-88
2022/04/22 00:47:13;;;;;;;;;;;;;;;12.82;63.91;99486.72;5031564;28;19925;-89
2022/04/22 00:49:58;;;;;;;;;;;;;;;12.85;63.96;99484.06;5041388;28;19917;-89
2022/04/22 00:52:43;;;;;;;;;;;;;;;12.74;64.15;99482.28;5038394;28;19921;-89
2022/04/22 00:55:29;;;;;;;;;;;;;;;12.71;63.57;99474.81;5044458;28;19916;-88
2022/04/22 00:58:14;;;;;;;;;;;;;;;12.68;63.36;99479.06;5040152;28;20304;-88
2022/04/22 01:00:58;;;;;;;;;;;;;;;12.75;62.75;99470.19;5041310;28;19917;-88
2022/04/22 01:09:51;;;;;;;;;;;;;;;12.82;63.93;99465.69;5037369;28;19917;-89
2022/04/22 01:12:37;;;;;;;;;;;;;;;12.72;63.84;99460.81;5040889;28;19917;-89
2022/04/22 01:15:22;;;;;;;;;;;;;;;12.69;63.11;99458.03;5040869;28;19917;-84
2022/04/22 01:18:06;;;;;;;;;;;;;;;12.73;63.43;99454.22;5037441;28;19917;-85
2022/04/22 01:20:52;;;;;;;;;;;;;;;12.72;63.63;99449.91;5041530;28;19917;-85
2022/04/22 01:23:36;;;;;;;;;;;;;;;12.68;63.57;99449.06;5038083;28;19925;-85
2022/04/22 01:26:21;;;;;;;;;;;;;;;12.71;63.47;99442.88;5043155;28;19917;-84
2022/04/22 01:29:05;;;;;;;;;;;;;;;12.65;63.54;99444.31;5038474;28;19921;-87
2022/04/22 01:31:50;;;;;;;;;;;;;;;12.59;63.17;99434.84;5038937;28;19917;-85
2022/04/22 01:34:38;;;;;;;;;;;;;;;12.60;63.66;99436.41;5031294;28;19917;-85
2022/04/22 01:37:23;;;;;;;;;;;;;;;12.59;63.70;99432.13;5038089;28;19921;-85
2022/04/22 01:40:08;;;;;;;;;;;;;;;12.46;64.50;99427.94;5037260;28;19918;-85
2022/04/22 01:42:55;;;;;;;;;;;;;;;12.61;63.88;99427.09;5037308;28;19921;-85
2022/04/22 01:45:40;;;;;;;;;;;;;;;12.55;63.95;99416.81;5048646;28;19917;-87
2022/04/22 01:48:25;;;;;;;;;;;;;;;12.50;65.21;99403.47;5039409;28;20309;-87
2022/04/22 01:51:09;;;;;;;;;;;;;;;12.55;64.67;99409.44;5040862;28;19921;-87
2022/04/22 01:53:54;;;;;;;;;;;;;;;12.69;63.80;99406.22;5037814;28;19917;-87
2022/04/22 01:56:38;;;;;;;;;;;;;;;12.72;63.85;99400.03;5043423;28;20298;-87
2022/04/22 01:59:23;;;;;;;;;;;;;;;12.66;65.18;99402.25;5037214;28;19921;-87
2022/04/22 02:02:07;;;;;;;;;;;;;;;12.63;64.68;99388.56;5038637;28;19916;-87
2022/04/22 02:04:52;;;;;;;;;;;;;;;12.57;65.40;99385.31;5042868;28;20381;-87
2022/04/22 02:07:36;;;;;;;;;;;;;;;12.47;66.19;99366.03;5040026;28;19921;-87
2022/04/22 02:10:21;;;;;;;;;;;;;;;12.41;65.79;99363.59;5043294;28;19917;-87
2022/04/22 02:13:05;;;;;;;;;;;;;;;12.51;66.01;99366.88;5042568;28;19917;-87
2022/04/22 02:15:49;;;;;;;;;;;;;;;12.45;66.27;99352.75;5042633;28;19917;-87
2022/04/22 02:18:36;;;;;;;;;;;;;;;12.37;66.75;99351.84;5024356;28;19925;-87
2022/04/22 02:21:21;;;;;;;;;;;;;;;12.34;66.96;99346.34;5053112;28;19917;-87
2022/04/22 02:24:06;;;;;;;;;;;;;;;12.30;67.29;99348.19;5037937;28;19917;-87
2022/04/22 02:29:54;;;;;;;;;;;;;;;12.24;67.16;99342.22;5042052;28;19921;-87
2022/04/22 02:32:38;;;;;;;;;;;;;;;12.24;66.68;99336.78;5036219;28;19918;-85
2022/04/22 02:35:23;;;;;;;;;;;;;;;12.28;66.55;99331.41;5059768;28;19921;-85
2022/04/22 02:38:08;;;;;;;;;;;;;;;12.24;65.92;99330.56;5043667;28;19917;-86
2022/04/22 02:46:59;;;;;;;;;;;;;;;12.18;66.51;99318.38;5040670;28;19922;-86
2022/04/22 02:49:44;;;;;;;;;;;;;;;12.16;66.36;99307.03;5040842;28;19917;-86
2022/04/22 02:52:28;;;;;;;;;;;;;;;12.16;65.99;99309.75;5033626;28;19917;-87
2022/04/22 02:55:13;;;;;;;;;;;;;;;12.12;66.14;99303.44;5046741;28;19917;-86
2022/04/22 02:57:57;;;;;;;;;;;;;;;12.20;66.45;99303.22;5043110;28;20321;-86
2022/04/22 03:00:42;;;;;;;;;;;;;;;12.24;66.85;99292.41;5045450;28;19917;-86
2022/04/22 03:03:27;;;;;;;;;;;;;;;12.21;66.66;99287.66;5041078;28;19917;-86
2022/04/22 03:06:11;;;;;;;;;;;;;;;12.17;66.54;99281.34;5047080;28;19929;-85
2022/04/22 03:08:56;;;;;;;;;;;;;;;12.18;66.76;99274.75;5040380;28;20377;-85
2022/04/22 03:11:40;;;;;;;;;;;;;;;12.17;66.58;99268.53;5043066;28;19917;-86
2022/04/22 03:14:25;;;;;;;;;;;;;;;12.19;67.03;99274.38;5054873;28;19917;-86
2022/04/22 03:17:09;;;;;;;;;;;;;;;12.19;67.46;99260.75;5044842;28;19917;-86
2022/04/22 03:19:53;;;;;;;;;;;;;;;12.25;67.33;99266.72;5038411;28;19921;-85
2022/04/22 03:22:38;;;;;;;;;;;;;;;12.33;66.76;99261.03;5039708;28;20309;-87
2022/04/22 03:25:22;;;;;;;;;;;;;;;12.28;67.09;99252.38;5044173;28;19925;-85
2022/04/22 03:28:07;;;;;;;;;;;;;;;12.22;67.04;99251.88;5046383;28;20321;-85
2022/04/22 03:30:52;;;;;;;;;;;;;;;12.19;67.73;99251.81;5040188;28;19921;-86
2022/04/22 03:33:37;;;;;;;;;;;;;;;12.24;67.26;99251.53;5072511;22;19928;-79
2022/04/22 03:36:21;;;;;;;;;;;;;;;12.25;67.56;99244.91;5078226;28;20396;-78
2022/04/22 03:39:07;;;;;;;;;;;;;;;12.22;67.81;99246.44;5081210;28;19917;-79
2022/04/22 03:41:52;;;;;;;;;;;;;;;12.22;68.05;99242.91;5082222;28;19917;-80
2022/04/22 03:44:37;;;;;;;;;;;;;;;12.20;68.34;99240.53;5069615;28;19917;-79
2022/04/22 03:47:21;;;;;;;;;;;;;;;12.19;68.65;99230.03;5056094;28;19936;-78
2022/04/22 03:50:06;;;;;;;;;;;;;;;12.17;68.77;99224.13;5062056;28;19917;-79
2022/04/22 03:52:50;;;;;;;;;;;;;;;12.24;68.24;99224.28;5056130;28;20309;-78
2022/04/22 03:55:35;;;;;;;;;;;;;;;12.25;68.38;99225.81;5042442;28;19917;-79
2022/04/22 03:58:20;;;;;;;;;;;;;;;12.27;68.46;99220.81;5049331;28;20389;-79
2022/04/22 04:01:04;;;;;;;;;;;;;;;12.27;68.40;99212.63;5041202;28;19916;-79
2022/04/22 04:03:49;;;;;;;;;;;;;;;12.29;68.19;99219.28;5069536;28;19936;-78
2022/04/22 04:06:35;;;;;;;;;;;;;;;12.27;68.55;99220.81;5063461;28;19916;-80
2022/04/22 04:18:32;;;;;;;;;;;;;;;12.20;68.88;99215.22;5057896;28;19917;-78
2022/04/22 04:24:21;;;;;;;;;;;;;;;12.24;69.52;99205.19;5045408;28;20297;-77
2022/04/22 04:27:07;;;;;;;;;;;;;;;12.25;69.54;99198.56;5063433;28;19916;-78
2022/04/22 04:29:52;;;;;;;;;;;;;;;12.22;69.54;99191.13;5075663;28;19916;-80
2022/04/22 04:32:36;;;;;;;;;;;;;;;12.21;69.72;99178.66;5058619;28;19917;-80
2022/04/22 04:35:21;;;;;;;;;;;;;;;12.19;69.68;99192.63;5062485;28;19917;-81
2022/04/22 04:38:06;;;;;;;;;;;;;;;12.23;69.47;99201.69;5076948;28;19921;-80
2022/04/22 04:40:51;;;;;;;;;;;;;;;12.23;69.39;99190.78;5081028;28;19924;-80
2022/04/22 04:43:38;;;;;;;;;;;;;;;12.23;69.52;99200.88;5077294;28;19920;-81
2022/04/22 04:46:23;;;;;;;;;;;;;;;12.25;69.83;99198.56;5081818;28;19917;-81
2022/04/22 04:49:07;;;;;;;;;;;;;;;12.19;69.95;99192.63;5065878;28;20413;-82
2022/04/22 04:51:52;;;;;;;;;;;;;;;12.18;70.26;99195.75;5060003;28;19917;-82
2022/04/22 04:54:36;;;;;;;;;;;;;;;12.15;69.83;99182.81;5063334;28;19921;-78
2022/04/22 04:57:21;;;;;;;;;;;;;;;12.16;69.67;99184.41;5075948;28;19924;-79
2022/04/22 05:00:06;;;;;;;;;;;;;;;12.21;70.08;99189.56;5059184;28;19920;-78
2022/04/22 05:02:51;;;;;;;;;;;;;;;12.22;69.60;99185.69;5073385;28;19917;-80
2022/04/22 05:05:35;;;;;;;;;;;;;;;12.14;69.90;99176.59;5058818;28;20400;-78
2022/04/22 05:08:19;;;;;;;;;;;;;;;12.13;70.22;99188.66;5071741;28;19921;-79
2022/04/22 05:11:05;;;;;;;;;;;;;;;12.16;69.96;99193.38;5083030;28;19921;-79
2022/04/22 05:13:49;;;;;;;;;;;;;;;12.14;70.33;99190.22;5071872;28;19917;-82
2022/04/22 05:16:34;;;;;;;;;;;;;;;12.17;70.13;99188.72;5061803;28;20393;-83
2022/04/22 05:19:19;;;;;;;;;;;;;;;12.20;69.96;99187.97;5057938;28;19920;-84
2022/04/22 05:22:03;;;;;;;;;;;;;;;12.24;69.57;99194.28;5068245;28;19917;-83
2022/04/22 05:24:48;;;;;;;;;;;;;;;12.22;69.73;99183.75;5063836;28;19924;-83
2022/04/22 05:27:34;;;;;;;;;;;;;;;12.20;69.90;99190.69;5051267;28;19921;-83
2022/04/22 05:33:22;;;;;;;;;;;;;;;12.25;69.10;99187.66;5057222;28;20301;-84
2022/04/22 05:36:07;;;;;;;;;;;;;;;12.24;69.25;99189.59;5061441;28;19916;-80
2022/04/22 05:38:54;;;;;;;;;;;;;;;12.24;69.40;99177.94;5065758;28;19924;-81
2022/04/22 05:41:38;;;;;;;;;;;;;;;12.28;69.17;99192.41;5045362;28;19917;-80
2022/04/22 05:44:23;;;;;;;;;;;;;;;12.26;69.44;99190.03;5054952;28;19917;-82
2022/04/22 05:47:07;;;;;;;;;;;;;;;12.28;69.82;99195.13;5076257;28;19917;-82
2022/04/22 05:49:52;;;;;;;;;;;;;;;12.29;69.21;99197.47;5062557;28;19921;-80
2022/04/22 05:52:37;;;;;;;;;;;;;;;12.76;67.17;99197.06;5038030;28;19917;-80
2022/04/22 05:55:23;;;;;;;;;;;;;;;13.34;63.90;99199.50;5033737;28;19917;-83
2022/04/22 05:58:07;;;;;;;;;;;;;;;13.90;61.56;99198.59;5033790;28;19917;-80
2022/04/22 06:00:53;;;;;;;;;;;;;;;14.36;60.24;99188.94;5033827;28;19917;-79
2022/04/22 06:03:37;;;;;;;;;;;;;;;14.65;59.23;99189.94;5042826;28;19917;-80
2022/04/22 06:06:23;;;;;;;;;;;;;;;14.82;58.43;99189.28;5060024;28;19917;-81
2022/04/22 06:12:27;;;;;;;;;;;;;;;15.30;57.11;99192.69;5052783;28;19917;-79
2022/04/22 06:15:13;;;;;;;;;;;;;;;15.44;56.59;99186.47;5054545;28;19917;-79
2022/04/22 06:17:57;;;;;;;;;;;;;;;15.55;56.06;99186.56;5073115;28;20377;-80
2022/04/22 06:20:43;;;;;;;;;;;;;;;15.50;56.06;99184.16;5054467;28;19916;-84
2022/04/22 06:23:27;;;;;;;;;;;;;;;15.43;56.15;99181.41;5045131;28;19917;-85
2022/04/22 06:26:12;;;;;;;;;;;;;;;15.28;56.94;99175.88;5061223;28;19917;-83
2022/04/22 06:28:57;;;;;;;;;;;;;;;15.37;56.85;99181.78;5061197;28;19920;-83
2022/04/22 06:31:41;;;;;;;;;;;;;;;15.32;57.23;99181.34;5069382;28;19917;-83
2022/04/22 06:34:26;;;;;;;;;;;;;;;15.39;57.18;99176.69;5049107;28;19921;-85
2022/04/22 06:37:11;;;;;;;;;;;;;;;15.32;57.69;99175.88;5059493;28;19917;-86
2022/04/22 06:46:03;;;;;;;;;;;;;;;15.41;57.73;99176.31;5055229;28;19917;-84
2022/04/22 06:48:48;;;;;;;;;;;;;;;15.45;57.58;99179.06;5069017;28;19928;-83
2022/04/22 06:51:33;;;;;;;;;;;;;;;15.36;58.17;99182.94;5058675;28;19917;-83
2022/04/22 06:54:18;;;;;;;;;;;;;;;15.39;58.03;99192.31;5070124;28;19916;-83
2022/04/22 06:57:02;;;;;;;;;;;;;;;15.38;58.14;99186.09;5052502;28;20381;-83
2022/04/22 06:59:47;;;;;;;;;;;;;;;15.34;58.13;99184.47;5047170;28;20184;-83
2022/04/22 07:02:32;;;;;;;;;;;;;;;15.35;57.84;99184.09;5037733;28;19917;-83
2022/04/22 07:05:16;;;;;;;;;;;;;;;15.37;57.98;99187.25;5044160;28;19921;-82
2022/04/22 07:08:02;;;;;;;;;;;;;;;15.32;58.12;99181.34;5052744;28;19921;-83
2022/04/22 07:10:49;;;;;;;;;;;;;;;15.33;57.97;99183.72;5071400;28;19924;-84
2022/04/22 07:13:34;;;;;;;;;;;;;;;15.44;57.69;99186.47;5062201;28;19916;-84
2022/04/22 07:16:20;;;;;;;;;;;;;;;15.48;57.96;99190.03;5071050;28;19917;-84
2022/04/22 07:19:04;;;;;;;;;;;;;;;15.50;58.03;99192.38;5070315;28;19916;-83
2022/04/22 07:21:49;;;;;;;;;;;;;;;15.50;57.80;99193.16;5071971;28;19917;-85
2022/04/22 07:24:34;;;;;;;;;;;;;;;15.48;57.93;99190.03;5061585;28;19917;-84
2022/04/22 07:27:23;;;;;;;;;;;;;;;15.46;57.96;99194.31;5060213;28;19917;-84
2022/04/22 07:30:09;;;;;;;;;;;;;;;15.43;58.44;99187.69;5076019;28;19925;-85
2022/04/22 07:32:54;;;;;;;;;;;;;;;15.44;58.14;99199.41;5071919;28;20690;-84
2022/04/22 07:35:39;;;;;;;;;;;;;;;15.41;58.46;99199.00;5066029;28;19916;-83
2022/04/22 07:38:24;;;;;;;;;;;;;;;15.36;58.42;99202.13;5063568;28;19917;-84
2022/04/22 07:41:09;;;;;;;;;;;;;;;15.37;58.49;99203.69;5055176;28;19917;-83
2022/04/22 07:46:59;;;;;;;;;;;;;;;15.32;58.88;99192.31;5056511;28;19917;-84
2022/04/22 07:49:44;;;;;;;;;;;;;;;15.25;58.67;99197.75;5056918;28;19924;-85
2022/04/22 07:52:28;;;;;;;;;;;;;;;15.32;58.61;99204.06;5054602;28;19917;-84
2022/04/22 07:55:13;;;;;;;;;;;;;;;15.40;58.47;99199.38;5058220;28;19917;-84
2022/04/22 07:57:58;;;;;;;;;;;;;;;15.37;58.70;99202.91;5043480;28;19921;-84
2022/04/22 08:00:46;;;;;;;;;;;;;;;15.04;60.36;99211.31;5041488;28;19917;-85
2022/04/22 08:03:31;;;;;;;;;;;;;;;14.95;60.67;99206.97;5037954;28;19917;-84
2022/04/22 08:06:16;;;;;;;;;;;;;;;15.18;59.32;99206.72;5049755;28;19921;-83
2022/04/22 08:09:01;;;;;;;;;;;;;;;15.33;58.63;99210.31;5051705;28;19921;-83
2022/04/22 08:11:45;;;;;;;;;;;;;;;15.35;58.71;99208.75;5049100;28;19921;-83
2022/04/22 08:14:31;;;;;;;;;;;;;;;15.48;58.54;99216.66;5057798;28;19917;-83
2022/04/22 08:17:16;;;;;;;;;;;;;;;15.49;58.26;99208.03;5050593;28;20309;-84
2022/04/22 08:20:00;;;;;;;;;;;;;;;15.45;58.48;99200.97;5044946;28;19917;-84
2022/04/22 08:22:45;;;;;;;;;;;;;;;15.49;58.14;99201.78;5051639;28;19917;-82
2022/04/22 08:25:30;;;;;;;;;;;;;;;15.45;59.01;99192.75;5069728;28;19916;-84
2022/04/22 08:28:14;;;;;;;;;;;;;;;15.40;59.43;99193.91;5046707;28;20315;-84
2022/04/22 08:30:58;;;;;;;;;;;;;;;15.53;58.90;99195.19;5062355;28;20385;-82
2022/04/22 08:33:45;;;;;;;;;;;;;;;15.64;59.57;99198.75;5055769;28;19917;-83
2022/04/22 08:36:31;;;;;;;;;;;;;;;15.67;60.12;99197.19;5060080;28;19916;-82
2022/04/22 08:39:16;;;;;;;;;;;;;;;15.71;59.92;99192.50;5050403;28;19925;-85
2022/04/22 08:42:01;;;;;;;;;;;;;;;15.69;59.74;99194.84;5053723;28;19917;-85
2022/04/22 08:44:46;;;;;;;;;;;;;;;15.56;60.28;99196.34;5052317;28;19921;-82
2022/04/22 08:50:35;;;;;;;;;;;;;;;14.67;64.16;99195.81;5055752;28;19920;-81
2022/04/22 08:53:21;;;;;;;;;;;;;;;14.56;64.76;99205.91;5055012;28;19916;-80
2022/04/22 08:56:10;;;;;;;;;;;;;;;14.30;66.49;99208.75;5055397;28;19923;-84
2022/04/22 08:58:55;;;;;;;;;;;;;;;14.30;66.87;99206.81;5058623;28;19920;-82
2022/04/22 09:01:39;;;;;;;;;;;;;;;14.43;66.39;99207.31;5055111;28;19917;-83
2022/04/22 09:04:23;;;;;;;;;;;;;;;14.62;65.85;99206.34;5054758;28;19916;-82
2022/04/22 09:07:11;;;;;;;;;;;;;;;14.47;64.90;99203.47;5054293;28;19917;-84
2022/04/22 09:09:56;;;;;;;;;;;;;;;14.67;64.86;99201.28;5054756;28;19924;-83
2022/04/22 09:12:48;;;;;;;;;;;;;;;14.81;64.88;99206.88;5059864;28;19917;-83
2022/04/22 09:15:34;;;;;;;;;;;;;;;14.76;65.31;99214.63;5047881;28;20106;-83
2022/04/22 09:18:23;;;;;;;;;;;;;;;14.73;65.85;99209.94;5053520;28;20300;-83
2022/04/22 09:21:18;;;;;;;;;;;;;;;14.71;65.31;99217.72;5037942;28;19920;-83
2022/04/22 09:24:13;;;;;;;;;;;;;;;14.69;65.35;99214.56;5054590;28;19917;-83
2022/04/22 09:27:04;;;;;;;;;;;;;;;14.88;63.80;99214.34;5040976;28;19917;-83
2022/04/22 09:29:53;;;;;;;;;;;;;;;14.88;64.68;99217.84;5042933;28;19921;-83
2022/04/22 09:32:39;;;;;;;;;;;;;;;14.67;65.10;99216.94;5035007;28;20301;-83
2022/04/22 09:35:25;;;;;;;;;;;;;;;14.74;65.24;99219.69;5060795;22;19924;-68
2022/04/22 09:44:27;;;;;;;;;;;;;;;14.51;64.98;99220.72;5052322;28;19917;-67
2022/04/22 09:47:13;;;;;;;;;;;;;;;14.40;66.06;99222.56;5050811;28;20206;-65
2022/04/22 09:49:57;;;;;;;;;;;;;;;14.35;66.76;99222.88;5052323;28;19921;-68
2022/04/22 09:52:46;;;;;;;;;;;;;;;14.31;67.23;99226.75;5052207;28;19917;-68
2022/04/22 09:55:34;;;;;;;;;;;;;;;14.24;68.55;99221.97;5052206;28;19917;-67
2022/04/22 09:58:22;;;;;;;;;;;;;;;14.26;69.57;99230.59;5052292;28;19916;-67
2022/04/22 10:01:07;;;;;;;;;;;;;;;14.28;68.84;99228.25;5052321;28;19916;-65
2022/04/22 10:03:51;;;;;;;;;;;;;;;14.25;68.57;99234.50;5052234;28;20303;-67
2022/04/22 10:06:38;;;;;;;;;;;;;;;14.19;70.32;99244.19;5052158;28;19917;-67
2022/04/22 10:09:23;;;;;;;;;;;;;;;14.14;68.97;99247.25;5052156;28;20384;-67
2022/04/22 10:12:09;;;;;;;;;;;;;;;14.14;69.28;99244.53;5072184;28;19916;-67
2022/04/22 10:14:57;;;;;;;;;;;;;;;14.17;68.95;99245.75;5051991;28;19916;-67
2022/04/22 10:17:44;;;;;;;;;;;;;;;14.22;67.98;99242.66;5052032;28;20380;-67
2022/04/22 10:20:29;;;;;;;;;;;;;;;14.21;67.36;99246.56;5052097;28;19916;-67
2022/04/22 10:23:14;;;;;;;;;;;;;;;14.19;66.67;99246.91;5051976;28;19920;-67
2022/04/22 10:26:01;;;;;;;;;;;;;;;14.16;66.61;99253.16;5065227;28;19917;-67
2022/04/22 10:28:46;;;;;;;;;;;;;;;14.22;65.69;99251.63;5051873;28;19920;-67
2022/04/22 10:31:31;;;;;;;;;;;;;;;14.18;65.72;99252.75;5052042;28;19916;-67
2022/04/22 10:34:16;;;;;;;;;;;;;;;14.23;66.81;99258.69;5051640;28;19917;-67
2022/04/22 10:37:00;;;;;;;;;;;;;;;14.21;67.10;99263.75;5051779;28;20296;-68
2022/04/22 10:39:48;;;;;;;;;;;;;;;14.24;67.42;99260.25;5052093;28;19921;-67
2022/04/22 10:42:34;;;;;;;;;;;;;;;14.29;67.65;99262.66;5051471;28;19917;-68
2022/04/22 10:48:25;;;;;;;;;;;;;;;14.33;67.46;99270.88;5052921;28;19920;-68
2022/04/22 10:51:09;;;;;;;;;;;;;;;14.31;67.80;99263.06;5055508;28;19916;-68
2022/04/22 10:53:54;;;;;;;;;;;;;;;14.35;67.71;99266.63;5055323;28;20309;-68
2022/04/22 10:56:41;;;;;;;;;;;;;;;14.31;67.91;99271.28;5075182;28;19917;-67
2022/04/22 10:59:32;;;;;;;;;;;;;;;14.35;67.63;99271.31;5055355;28;19917;-67
2022/04/22 11:02:26;;;;;;;;;;;;;;;14.36;68.27;99281.09;5055144;28;19916;-68
2022/04/22 11:05:20;;;;;;;;;;;;;;;14.32;68.98;99283.78;5055186;28;19916;-68
2022/04/22 11:08:05;;;;;;;;;;;;;;;14.37;69.62;99286.22;5055123;28;19920;-67
2022/04/22 11:10:51;;;;;;;;;;;;;;;14.37;68.49;99285.44;5075008;28;19920;-68
2022/04/22 11:13:45;;;;;;;;;;;;;;;14.40;68.18;99290.94;5054997;28;19916;-68
2022/04/22 11:16:32;;;;;;;;;;;;;;;14.38;68.08;99292.44;5055330;28;19917;-68
2022/04/22 11:19:17;;;;;;;;;;;;;;;14.37;67.73;99290.91;5054741;28;19917;-68
2022/04/22 11:22:02;;;;;;;;;;;;;;;14.32;68.32;99294.72;5054976;28;19917;-68
2022/04/22 11:24:49;;;;;;;;;;;;;;;14.37;68.52;99301.84;5057149;28;19924;-68
2022/04/22 11:27:35;;;;;;;;;;;;;;;14.38;67.69;99304.19;5054816;28;19920;-68
2022/04/22 11:30:20;;;;;;;;;;;;;;;14.42;68.20;99305.03;5054751;28;19921;-67
2022/04/22 11:33:16;;;;;;;;;;;;;;;14.46;68.06;99308.56;5054723;28;19917;-68
2022/04/22 11:36:03;;;;;;;;;;;;;;;14.45;68.66;99309.72;5067800;28;19917;-68
2022/04/22 11:38:50;;;;;;;;;;;;;;;14.38;65.73;99306.91;5054495;28;19917;-68
2022/04/22 11:41:34;;;;;;;;;;;;;;;14.39;65.41;99308.50;5054656;28;19916;-67
2022/04/22 11:44:19;;;;;;;;;;;;;;;14.42;66.34;99309.72;5054544;28;19917;-68
2022/04/22 11:47:04;;;;;;;;;;;;;;;14.44;66.72;99313.63;5054581;28;19917;-68
2022/04/22 11:49:48;;;;;;;;;;;;;;;14.48;67.89;99317.19;5054279;28;19920;-68
2022/04/22 11:52:33;;;;;;;;;;;;;;;14.50;66.88;99319.53;5054415;28;20295;-68
2022/04/22 11:55:20;;;;;;;;;;;;;;;14.47;65.82;99323.84;5069343;28;19917;-67
2022/04/22 11:58:05;;;;;;;;;;;;;;;14.52;66.44;99328.19;5054286;28;19916;-67
2022/04/22 12:06:57;;;;;;;;;;;;;;;14.60;65.28;99331.75;5054115;28;20295;-68
2022/04/22 12:09:41;;;;;;;;;;;;;;;14.61;65.85;99331.38;5073807;28;19921;-68
2022/04/22 12:12:32;;;;;;;;;;;;;;;14.59;65.24;99333.69;5073825;28;20395;-68
2022/04/22 12:15:19;;;;;;;;;;;;;;;14.53;66.51;99338.72;5054057;28;19916;-67
2022/04/22 12:18:03;;;;;;;;;;;;;;;14.58;66.38;99343.06;5053564;28;19917;-68
2022/04/22 12:20:49;;;;;;;;;;;;;;;14.54;65.86;99342.25;5053672;28;19917;-68
2022/04/22 12:23:39;;;;;;;;;;;;;;;14.48;65.99;99347.25;5059270;28;19917;-67
2022/04/22 12:26:25;;;;;;;;;;;;;;;14.50;66.14;99352.38;5053557;28;19936;-68
2022/04/22 12:29:10;;;;;;;;;;;;;;;14.55;66.44;99346.56;5053403;28;19924;-68
2022/04/22 12:31:55;;;;;;;;;;;;;;;14.62;66.53;99351.34;5053808;28;19921;-68
2022/04/22 12:34:40;;;;;;;;;;;;;;;14.66;66.05;99354.88;5070135;28;20316;-68
2022/04/22 12:37:26;;;;;;;;;;;;;;;14.61;64.96;99355.22;5053334;28;19921;-67
2022/04/22 12:40:11;;;;;;;;;;;;;;;14.66;65.92;99361.16;5053268;28;19936;-68
2022/04/22 12:43:16;;;;;;;;;;;;;;;14.67;65.35;99360.00;5052998;28;19916;-67
2022/04/22 12:52:29;;;;;;;;;;;;;;;14.60;65.87;99348.16;5058808;28;19916;-68
2022/04/22 12:55:16;;;;;;;;;;;;;;;14.59;66.40;99352.06;5054335;28;19917;-68
2022/04/22 12:58:00;;;;;;;;;;;;;;;14.61;66.04;99352.47;5053176;28;19917;-68
2022/04/22 13:00:45;;;;;;;;;;;;;;;14.61;67.30;99361.47;5053148;28;19920;-68
2022/04/22 13:03:37;;;;;;;;;;;;;;;14.65;66.47;99356.03;5053000;28;19933;-67
2022/04/22 13:06:40;;;;;;;;;;;;;;;14.62;66.55;99356.81;5052863;28;19928;-68
2022/04/22 13:09:26;;;;;;;;;;;;;;;14.60;68.34;99351.69;5052880;28;19925;-68
2022/04/22 13:12:11;;;;;;;;;;;;;;;14.58;67.37;99361.47;5052196;28;19916;-67
2022/04/22 13:14:56;;;;;;;;;;;;;;;14.57;66.44;99368.09;5052767;28;20360;-68
2022/04/22 13:17:43;;;;;;;;;;;;;;;14.54;66.24;99362.19;5052802;28;20282;-68
2022/04/22 13:20:27;;;;;;;;;;;;;;;14.55;65.91;99362.97;5052688;28;20295;-68
2022/04/22 13:23:11;;;;;;;;;;;;;;;14.55;66.15;99363.75;5052663;28;19917;-68
2022/04/22 13:25:56;;;;;;;;;;;;;;;14.61;67.57;99366.16;5052533;28;19917;-67
2022/04/22 13:28:40;;;;;;;;;;;;;;;14.61;66.77;99366.97;5052611;28;20372;-68
2022/04/22 13:31:25;;;;;;;;;;;;;;;14.65;67.11;99364.25;5052568;28;19921;-68
2022/04/22 13:34:09;;;;;;;;;;;;;;;14.62;66.33;99368.53;5052332;28;19917;-68
2022/04/22 13:36:53;;;;;;;;;;;;;;;14.65;65.99;99372.47;5051853;28;19916;-68
2022/04/22 13:39:38;;;;;;;;;;;;;;;14.66;67.41;99366.63;5051380;28;19917;-68
2022/04/22 13:42:23;;;;;;;;;;;;;;;14.65;67.21;99364.25;5071443;28;19917;-68
2022/04/22 13:54:17;;;;;;;;;;;;;;;14.66;66.63;99382.25;5052110;28;19917;-68
2022/04/22 13:57:02;;;;;;;;;;;;;;;14.70;66.55;99375.66;5052048;28;19917;-68
2022/04/22 13:59:46;;;;;;;;;;;;;;;14.66;66.31;99374.81;5052288;28;19916;-68
2022/04/22 14:02:31;;;;;;;;;;;;;;;14.65;65.80;99375.97;5052117;28;19921;-68
2022/04/22 14:05:21;;;;;;;;;;;;;;;14.67;65.31;99370.94;5053425;28;19917;-68
2022/04/22 14:08:05;;;;;;;;;;;;;;;14.72;65.51;99370.59;5052179;28;19920;-68
2022/04/22 14:10:50;;;;;;;;;;;;;;;14.71;65.11;99376.44;5052121;28;19975;-67
2022/04/22 14:13:35;;;;;;;;;;;;;;;14.73;64.77;99385.06;5052042;28;20396;-67
2022/04/22 14:16:19;;;;;;;;;;;;;;;14.76;65.07;99376.88;5052076;28;19917;-67
2022/04/22 14:19:03;;;;;;;;;;;;;;;14.80;65.55;99380.44;5057688;28;19918;-67
2022/04/22 14:21:48;;;;;;;;;;;;;;;14.84;65.18;99377.72;5052314;28;19916;-68
2022/04/22 14:24:32;;;;;;;;;;;;;;;14.86;64.55;99383.63;5055850;28;19916;-68
2022/04/22 14:27:18;;;;;;;;;;;;;;;14.87;65.60;99386.00;5055874;28;19917;-67
2022/04/22 14:30:06;;;;;;;;;;;;;;;14.87;65.47;99387.94;5055699;28;19920;-67
2022/04/22 14:32:51;;;;;;;;;;;;;;;14.89;66.46;99382.84;5056045;28;19916;-68
2022/04/22 14:35:35;;;;;;;;;;;;;;;14.90;65.03;99377.03;5055405;28;19920;-68
2022/04/22 14:38:20;;;;;;;;;;;;;;;14.91;65.07;99386.03;5075478;28;19916;-68
2022/04/22 14:41:05;;;;;;;;;;;;;;;14.95;65.71;99384.88;5061359;28;19917;-68
2022/04/22 14:43:49;;;;;;;;;;;;;;;14.97;65.08;99390.78;5055627;28;19917;-68
2022/04/22 14:46:35;;;;;;;;;;;;;;;14.95;65.55;99381.34;5055615;28;20387;-68
2022/04/22 14:49:19;;;;;;;;;;;;;;;14.94;65.76;99385.25;5054947;28;19920;-68
2022/04/22 14:52:05;;;;;;;;;;;;;;;14.98;65.67;99391.56;5055521;28;19917;-66
2022/04/22 14:54:49;;;;;;;;;;;;;;;15.03;64.90;99390.44;5055343;28;19920;-66
2022/04/22 14:57:34;;;;;;;;;;;;;;;15.08;64.75;99390.88;5061146;28;20387;-66
2022/04/22 15:00:18;;;;;;;;;;;;;;;15.12;64.39;99391.69;5060944;28;19917;-66
2022/04/22 15:03:03;;;;;;;;;;;;;;;15.12;64.26;99397.19;5055329;28;19917;-66
2022/04/22 15:05:48;;;;;;;;;;;;;;;15.16;65.17;99398.00;5069024;28;19917;-66
2022/04/22 15:08:33;;;;;;;;;;;;;;;15.20;65.95;99390.59;5055258;28;19917;-66
2022/04/22 15:11:18;;;;;;;;;;;;;;;15.16;64.65;99398.00;5055233;28;19942;-66
2022/04/22 15:14:04;;;;;;;;;;;;;;;15.20;64.68;99403.50;5055054;28;19917;-65
2022/04/22 15:16:49;;;;;;;;;;;;;;;15.20;64.61;99404.28;5055015;28;19917;-66
2022/04/22 15:25:40;;;;;;;;;;;;;;;15.22;64.71;99407.44;5054739;28;19916;-68
2022/04/22 15:28:25;;;;;;;;;;;;;;;15.24;64.77;99409.78;5054709;28;19917;-68
2022/04/22 15:31:13;;;;;;;;;;;;;;;15.26;64.46;99413.72;5054576;28;20003;-68
2022/04/22 15:33:58;;;;;;;;;;;;;;;15.25;64.37;99409.41;5054308;28;19917;-68
2022/04/22 15:36:43;;;;;;;;;;;;;;;15.26;63.70;99411.00;5081145;22;19940;-72
2022/04/22 15:39:27;;;;;;;;;;;;;;;15.24;63.76;99416.03;5064625;28;19928;-71
2022/04/22 15:42:12;;;;;;;;;;;;;;;15.24;64.16;99410.56;5077019;28;19916;-71
2022/04/22 15:44:57;;;;;;;;;;;;;;;15.24;63.90;99410.56;5063140;28;19917;-70
2022/04/22 15:47:42;;;;;;;;;;;;;;;15.25;63.76;99409.41;5051073;28;19917;-70
2022/04/22 15:50:27;;;;;;;;;;;;;;;15.28;64.28;99416.88;5057910;28;19920;-70